createdAt,value
2022-09-15T00:00:07.120Z,65.00
2022-09-15T00:02:34.252Z,65.07
2022-09-15T00:05:00.899Z,64.57
2022-09-15T00:07:27.760Z,64.68
2022-09-15T00:09:54.332Z,64.74
2022-09-15T00:12:20.950Z,64.63
2022-09-15T00:14:47.596Z,64.32
2022-09-15T00:17:15.643Z,64.21
2022-09-15T00:19:42.197Z,64.37
2022-09-15T00:22:08.836Z,64.38
2022-09-15T00:24:36.047Z,63.96
2022-09-15T00:27:03.534Z,64.13
2022-09-15T00:29:30.219Z,63.71
2022-09-15T00:31:56.838Z,64.23
2022-09-15T00:34:23.395Z,64.63
2022-09-15T00:36:50.063Z,66.12
2022-09-15T00:39:17.195Z,65.61
2022-09-15T00:41:44.262Z,66.18
2022-09-15T00:44:16.935Z,65.43
2022-09-15T00:47:09.377Z,66.36
2022-09-15T00:49:39.217Z,67.38
2022-09-15T00:52:14.903Z,67.02
2022-09-15T00:54:59.719Z,66.71
2022-09-15T00:57:31.703Z,66.35
2022-09-15T01:00:00.578Z,66.10
2022-09-15T01:02:33.424Z,66.21
2022-09-15T01:05:03.622Z,65.83
2022-09-15T01:07:30.322Z,65.97
2022-09-15T01:10:00.552Z,66.18
2022-09-15T01:12:28.557Z,66.26
2022-09-15T01:14:55.204Z,66.83
2022-09-15T01:17:41.022Z,66.26
2022-09-15T01:20:42.684Z,65.50
2022-09-15T01:23:40.450Z,65.75
2022-09-15T01:26:44.497Z,65.32
2022-09-15T01:29:32.446Z,66.49
2022-09-15T01:32:20.380Z,66.24
2022-09-15T01:35:18.135Z,66.25
2022-09-15T01:38:07.828Z,67.12
2022-09-15T01:40:57.223Z,66.76
2022-09-15T01:43:26.441Z,66.54
2022-09-15T01:45:53.315Z,66.34
2022-09-15T01:48:23.783Z,67.12
2022-09-15T01:50:55.668Z,65.59
2022-09-15T01:53:23.675Z,66.00
2022-09-15T01:55:50.191Z,65.78
2022-09-15T01:58:16.868Z,66.56
2022-09-15T02:00:49.589Z,67.42
2022-09-15T02:03:26.119Z,66.85
2022-09-15T02:06:02.171Z,66.62
2022-09-15T02:08:38.651Z,66.13
2022-09-15T02:11:20.883Z,65.78
2022-09-15T02:13:58.063Z,65.74
2022-09-15T02:16:29.805Z,66.15
2022-09-15T02:19:00.977Z,66.20
2022-09-15T02:21:34.129Z,66.86
2022-09-15T02:24:07.580Z,66.64
2022-09-15T02:26:37.771Z,66.36
2022-09-15T02:29:08.492Z,66.52
2022-09-15T02:31:39.414Z,66.50
2022-09-15T02:34:13.224Z,66.07
2022-09-15T02:36:41.561Z,66.06
2022-09-15T02:39:13.556Z,65.46
2022-09-15T02:41:40.454Z,65.49
2022-09-15T02:44:09.639Z,66.00
2022-09-15T02:46:36.852Z,66.29
2022-09-15T02:49:03.492Z,65.80
2022-09-15T02:51:31.136Z,65.53
2022-09-15T02:53:57.808Z,65.12
2022-09-15T02:56:24.441Z,65.03
2022-09-15T02:58:51.273Z,65.95
2022-09-15T03:01:18.354Z,66.96
2022-09-15T03:03:45.804Z,65.99
2022-09-15T03:06:16.634Z,65.11
2022-09-15T03:08:48.496Z,66.27
2022-09-15T03:11:15.549Z,66.24
2022-09-15T03:13:42.209Z,66.54
2022-09-15T03:16:10.943Z,66.18
2022-09-15T03:18:38.473Z,66.01
2022-09-15T03:21:06.010Z,65.88
2022-09-15T03:23:32.948Z,67.82
2022-09-15T03:25:59.627Z,66.71
2022-09-15T03:28:26.955Z,67.41
2022-09-15T03:30:54.616Z,67.23
2022-09-15T03:33:22.142Z,67.51
2022-09-15T03:35:49.763Z,67.46
2022-09-15T03:38:17.334Z,67.03
2022-09-15T03:40:44.961Z,67.43
2022-09-15T03:43:16.650Z,66.30
2022-09-15T03:45:45.258Z,67.22
2022-09-15T03:48:11.928Z,66.74
2022-09-15T03:50:38.578Z,66.72
2022-09-15T03:53:05.190Z,67.04
2022-09-15T03:55:31.789Z,65.96
2022-09-15T03:57:58.399Z,65.32
2022-09-15T04:00:25.082Z,65.08
2022-09-15T04:02:51.808Z,66.39
2022-09-15T04:05:18.483Z,66.09
2022-09-15T04:07:45.040Z,66.73
2022-09-15T04:10:11.715Z,67.47
2022-09-15T04:12:38.631Z,67.35
2022-09-15T04:15:05.818Z,67.18
2022-09-15T04:17:32.462Z,67.37
2022-09-15T04:19:59.183Z,67.14
2022-09-15T04:22:25.825Z,67.72
2022-09-15T04:24:52.678Z,67.79
2022-09-15T04:27:19.424Z,67.83
2022-09-15T04:29:46.235Z,67.41
2022-09-15T04:32:12.837Z,67.46
2022-09-15T04:34:41.517Z,67.53
2022-09-15T04:37:08.236Z,67.82
2022-09-15T04:39:34.839Z,67.62
2022-09-15T04:42:05.155Z,67.97
2022-09-15T04:44:32.503Z,68.10
2022-09-15T04:46:59.193Z,68.15
2022-09-15T04:49:25.940Z,68.20
2022-09-15T04:51:55.549Z,68.13
2022-09-15T04:54:22.148Z,67.83
2022-09-15T04:56:49.389Z,68.23
2022-09-15T04:59:17.365Z,68.21
2022-09-15T05:01:44.051Z,68.44
2022-09-15T05:04:11.258Z,68.41
2022-09-15T05:06:38.202Z,68.35
2022-09-15T05:09:10.340Z,68.28
2022-09-15T05:11:37.935Z,68.51
2022-09-15T05:14:04.664Z,68.42
2022-09-15T05:16:32.038Z,67.62
2022-09-15T05:19:01.292Z,68.40
2022-09-15T05:21:29.008Z,69.58
2022-09-15T05:23:56.415Z,69.67
2022-09-15T05:26:26.177Z,70.03
2022-09-15T05:28:52.887Z,70.35
2022-09-15T05:31:22.713Z,69.62
2022-09-15T05:33:50.583Z,69.40
2022-09-15T05:36:18.578Z,68.69
2022-09-15T05:38:47.338Z,68.49
2022-09-15T05:41:17.015Z,68.50
2022-09-15T05:43:45.147Z,67.99
2022-09-15T05:46:12.668Z,67.35
2022-09-15T05:48:39.458Z,66.46
2022-09-15T05:51:06.871Z,68.18
2022-09-15T05:53:34.683Z,67.46
2022-09-15T05:56:05.219Z,67.61
2022-09-15T05:58:32.086Z,67.82
2022-09-15T06:01:08.004Z,67.55
2022-09-15T06:03:35.695Z,68.16
2022-09-15T06:06:05.085Z,68.55
2022-09-15T06:08:37.278Z,67.07
2022-09-15T06:11:12.985Z,67.79
2022-09-15T06:13:40.306Z,68.15
2022-09-15T06:16:12.925Z,68.22
2022-09-15T06:18:40.982Z,68.60
2022-09-15T06:21:18.397Z,68.78
2022-09-15T06:23:50.550Z,68.18
2022-09-15T06:26:18.984Z,67.71
2022-09-15T06:28:54.600Z,67.62
2022-09-15T06:31:22.234Z,67.51
2022-09-15T06:33:51.847Z,68.25
2022-09-15T06:36:20.825Z,66.82
2022-09-15T06:38:48.350Z,67.14
2022-09-15T06:41:16.010Z,67.54
2022-09-15T06:43:43.512Z,66.99
2022-09-15T06:46:11.466Z,66.55
2022-09-15T06:48:39.551Z,67.19
2022-09-15T06:51:08.746Z,68.14
2022-09-15T06:53:38.189Z,67.68
2022-09-15T06:56:14.548Z,67.12
2022-09-15T06:58:42.770Z,67.71
2022-09-15T07:01:12.267Z,67.71
2022-09-15T07:03:41.849Z,67.96
2022-09-15T07:06:10.067Z,66.92
2022-09-15T07:08:36.699Z,67.19
2022-09-15T07:11:04.175Z,66.57
2022-09-15T07:13:30.740Z,66.01
2022-09-15T07:16:00.245Z,66.82
2022-09-15T07:18:27.492Z,66.31
2022-09-15T07:20:59.538Z,67.69
2022-09-15T07:23:26.368Z,66.96
2022-09-15T07:25:53.067Z,67.49
2022-09-15T07:28:19.850Z,66.37
2022-09-15T07:30:50.837Z,66.51
2022-09-15T07:33:17.515Z,66.58
2022-09-15T07:35:44.883Z,67.00
2022-09-15T07:38:11.389Z,64.75
2022-09-15T07:40:38.664Z,65.18
2022-09-15T07:43:06.555Z,64.57
2022-09-15T07:45:36.144Z,64.57
2022-09-15T07:48:03.103Z,65.39
2022-09-15T07:50:29.859Z,65.38
2022-09-15T07:52:57.130Z,65.04
2022-09-15T07:55:24.543Z,64.98
2022-09-15T07:58:03.743Z,64.25
2022-09-15T08:00:30.479Z,65.11
2022-09-15T08:02:57.150Z,64.56
2022-09-15T08:05:28.392Z,63.99
2022-09-15T08:07:56.187Z,65.04
2022-09-15T08:10:25.148Z,63.79
2022-09-15T08:12:52.636Z,64.30
2022-09-15T08:15:19.183Z,63.51
2022-09-15T08:17:46.577Z,63.96
2022-09-15T08:20:13.435Z,64.41
2022-09-15T08:22:41.274Z,63.64
2022-09-15T08:25:08.303Z,64.25
2022-09-15T08:27:35.099Z,63.61
2022-09-15T08:30:01.916Z,63.92
2022-09-15T08:32:28.529Z,62.93
2022-09-15T08:34:55.141Z,64.00
2022-09-15T08:37:22.019Z,63.48
2022-09-15T08:39:48.762Z,62.84
2022-09-15T08:42:20.575Z,62.23
2022-09-15T08:44:55.643Z,60.74
2022-09-15T08:47:36.206Z,61.63
2022-09-15T08:50:11.197Z,61.06
2022-09-15T08:52:53.598Z,60.88
2022-09-15T08:55:25.944Z,61.35
2022-09-15T08:57:53.659Z,61.59
2022-09-15T09:00:20.357Z,61.61
2022-09-15T09:02:58.987Z,61.77
2022-09-15T09:05:31.875Z,62.58
2022-09-15T09:08:16.724Z,61.06
2022-09-15T09:10:54.787Z,60.76
2022-09-15T09:13:24.361Z,60.21
2022-09-15T09:16:19.291Z,61.30
2022-09-15T09:18:47.141Z,60.88
2022-09-15T09:22:13.933Z,60.75
2022-09-15T09:24:44.965Z,60.49
2022-09-15T09:27:14.356Z,59.42
2022-09-15T09:29:59.378Z,57.91
2022-09-15T09:32:35.199Z,58.53
2022-09-15T09:35:31.524Z,58.08
2022-09-15T09:38:00.105Z,57.47
2022-09-15T09:40:28.247Z,57.68
2022-09-15T09:42:54.947Z,58.12
2022-09-15T09:45:22.773Z,56.08
2022-09-15T09:47:50.078Z,56.35
2022-09-15T09:50:39.070Z,56.54
2022-09-15T09:53:26.404Z,55.31
2022-09-15T09:56:14.718Z,55.06
2022-09-15T09:58:41.590Z,55.45
2022-09-15T10:01:14.818Z,55.35
2022-09-15T10:03:43.290Z,54.13
2022-09-15T10:06:20.812Z,53.43
2022-09-15T10:09:04.790Z,52.99
2022-09-15T10:11:47.193Z,51.54
2022-09-15T10:14:35.899Z,51.46
2022-09-15T10:17:18.948Z,52.17
2022-09-15T10:19:50.868Z,51.33
2022-09-15T10:22:22.332Z,51.08
2022-09-15T10:24:50.180Z,50.68
2022-09-15T10:27:27.351Z,51.02
2022-09-15T10:29:54.886Z,51.45
2022-09-15T10:32:30.317Z,50.53
2022-09-15T10:35:05.612Z,48.67
2022-09-15T10:37:53.479Z,48.51
2022-09-15T10:40:36.338Z,49.66
2022-09-15T10:43:32.338Z,47.47
2022-09-15T10:46:09.918Z,46.60
2022-09-15T10:48:58.575Z,46.58
2022-09-15T10:51:33.444Z,47.05
2022-09-15T10:54:06.593Z,47.59
2022-09-15T10:56:49.521Z,48.89
2022-09-15T10:59:36.889Z,45.74
2022-09-15T11:02:19.644Z,41.73
2022-09-15T11:04:55.295Z,41.23
2022-09-15T11:07:41.799Z,42.73
2022-09-15T11:10:25.794Z,44.22
2022-09-15T11:13:24.091Z,45.65
2022-09-15T11:16:03.615Z,45.74
2022-09-15T11:18:58.251Z,46.42
2022-09-15T11:21:35.151Z,44.92
2022-09-15T11:24:20.071Z,44.63
2022-09-15T11:26:56.758Z,45.67
2022-09-15T11:29:30.847Z,45.84
2022-09-15T11:32:04.745Z,44.56
2022-09-15T11:34:41.232Z,43.89
2022-09-15T11:37:40.446Z,46.54
2022-09-15T11:40:16.853Z,45.76
2022-09-15T11:43:01.924Z,46.19
2022-09-15T11:45:35.076Z,47.12
2022-09-15T11:48:16.855Z,47.73
2022-09-15T11:50:46.970Z,49.40
2022-09-15T11:53:17.975Z,49.30
2022-09-15T11:56:00.529Z,50.49
2022-09-15T11:58:48.079Z,50.86
2022-09-15T12:01:20.395Z,50.98
2022-09-15T12:03:53.692Z,50.67
2022-09-15T12:06:48.443Z,50.97
2022-09-15T12:09:19.893Z,50.28
2022-09-15T12:11:48.783Z,49.69
2022-09-15T12:14:21.591Z,48.80
2022-09-15T12:16:48.390Z,46.43
2022-09-15T12:20:04.522Z,45.87
2022-09-15T12:22:45.577Z,46.31
2022-09-15T12:25:22.364Z,43.43
2022-09-15T12:28:23.184Z,45.03
2022-09-15T12:31:12.699Z,47.09
2022-09-15T12:33:53.553Z,46.39
2022-09-15T12:36:48.825Z,46.25
2022-09-15T12:39:39.656Z,47.62
2022-09-15T12:42:20.506Z,49.39
2022-09-15T12:44:57.134Z,50.10
2022-09-15T12:47:32.323Z,49.79
2022-09-15T12:50:22.111Z,49.66
2022-09-15T12:52:54.746Z,49.69
2022-09-15T12:55:35.187Z,49.62
2022-09-15T12:58:10.763Z,48.80
2022-09-15T13:00:54.839Z,48.40
2022-09-15T13:06:24.077Z,49.02
2022-09-15T13:08:51.975Z,48.46
2022-09-15T13:11:28.452Z,46.43
2022-09-15T13:14:11.318Z,46.84
2022-09-15T13:16:40.624Z,46.29
2022-09-15T13:19:13.877Z,47.30
2022-09-15T13:21:46.050Z,47.54
2022-09-15T13:24:19.351Z,46.87
2022-09-15T13:26:52.790Z,47.17
2022-09-15T13:29:20.198Z,47.76
2022-09-15T13:32:03.888Z,47.22
2022-09-15T13:38:14.041Z,43.37
2022-09-15T13:40:40.579Z,42.89
2022-09-15T13:43:13.197Z,42.38
2022-09-15T13:46:08.555Z,42.50
2022-09-15T13:48:46.978Z,41.94
2022-09-15T13:51:23.770Z,40.58
2022-09-15T13:53:56.222Z,41.57
2022-09-15T13:56:28.241Z,39.85
2022-09-15T13:59:08.925Z,39.66
2022-09-15T14:01:39.739Z,37.49
2022-09-15T14:04:10.709Z,38.64
2022-09-15T14:06:40.593Z,39.25
2022-09-15T14:09:25.811Z,40.74
2022-09-15T14:11:56.931Z,42.50
2022-09-15T14:14:38.675Z,43.68
2022-09-15T14:17:05.659Z,44.98
2022-09-15T14:19:39.350Z,45.28
2022-09-15T14:22:26.272Z,46.44
2022-09-15T14:24:54.123Z,46.06
2022-09-15T14:27:29.964Z,47.86
2022-09-15T14:29:58.655Z,46.96
2022-09-15T14:32:27.920Z,46.91
2022-09-15T14:34:58.897Z,46.80
2022-09-15T14:37:31.617Z,48.33
2022-09-15T14:40:00.692Z,47.03
2022-09-15T14:42:35.358Z,46.56
2022-09-15T14:48:03.398Z,48.41
2022-09-15T14:50:33.209Z,49.83
2022-09-15T14:53:23.524Z,51.27
2022-09-15T14:55:52.359Z,54.18
2022-09-15T14:58:24.712Z,55.78
2022-09-15T15:00:54.902Z,56.83
2022-09-15T15:03:21.529Z,58.13
2022-09-15T15:06:02.599Z,58.18
2022-09-15T15:08:42.968Z,57.70
2022-09-15T15:11:12.977Z,56.69
2022-09-15T15:13:42.688Z,56.69
2022-09-15T15:16:27.525Z,56.24
2022-09-15T15:18:56.956Z,56.35
2022-09-15T15:21:38.569Z,56.95
2022-09-15T15:24:18.707Z,55.84
2022-09-15T15:26:50.360Z,55.99
2022-09-15T15:29:44.187Z,55.06
2022-09-15T15:32:16.553Z,54.84
2022-09-15T15:34:55.805Z,54.99
2022-09-15T15:37:31.508Z,54.47
2022-09-15T15:40:01.842Z,54.72
2022-09-15T15:42:29.462Z,54.21
2022-09-15T15:45:09.365Z,53.36
2022-09-15T15:47:37.049Z,54.70
2022-09-15T15:50:32.455Z,53.36
2022-09-15T15:53:00.910Z,53.35
2022-09-15T15:55:41.620Z,52.97
2022-09-15T15:58:10.595Z,52.58
2022-09-15T16:00:48.716Z,52.85
2022-09-15T16:03:17.139Z,53.24
2022-09-15T16:05:47.070Z,51.01
2022-09-15T16:08:19.825Z,49.77
2022-09-15T16:10:48.488Z,50.16
2022-09-15T16:13:17.492Z,51.02
2022-09-15T16:15:45.051Z,52.33
2022-09-15T16:18:12.873Z,53.14
2022-09-15T16:20:40.087Z,53.78
2022-09-15T16:23:07.456Z,53.67
2022-09-15T16:25:45.240Z,54.24
2022-09-15T16:28:11.870Z,55.12
2022-09-15T16:30:38.513Z,55.69
2022-09-15T16:33:05.484Z,54.73
2022-09-15T16:35:43.274Z,55.30
2022-09-15T16:38:10.139Z,55.16
2022-09-15T16:40:39.580Z,54.90
2022-09-15T16:43:12.385Z,55.17
2022-09-15T16:45:40.884Z,57.04
2022-09-15T16:48:09.211Z,59.78
2022-09-15T16:50:37.781Z,59.58
2022-09-15T16:53:08.853Z,60.91
2022-09-15T16:55:41.205Z,60.32
2022-09-15T16:58:07.859Z,59.72
2022-09-15T17:00:36.801Z,60.79
2022-09-15T17:03:05.435Z,60.62
2022-09-15T17:05:43.075Z,60.17
2022-09-15T17:08:12.732Z,60.65
2022-09-15T17:10:39.822Z,60.10
2022-09-15T17:13:07.184Z,61.75
2022-09-15T17:15:36.947Z,61.56
2022-09-15T17:18:04.603Z,60.95
2022-09-15T17:20:34.729Z,60.35
2022-09-15T17:23:27.762Z,60.85
2022-09-15T17:25:58.453Z,60.56
2022-09-15T17:28:28.926Z,60.66
2022-09-15T17:31:00.756Z,60.44
2022-09-15T17:33:28.879Z,60.96
2022-09-15T17:35:55.913Z,60.49
2022-09-15T17:38:23.146Z,59.97
2022-09-15T17:40:51.309Z,60.30
2022-09-15T17:43:20.987Z,60.42
2022-09-15T17:45:48.831Z,61.69
2022-09-15T17:48:15.996Z,61.27
2022-09-15T17:50:43.527Z,61.43
2022-09-15T17:53:12.743Z,60.24
2022-09-15T17:55:39.882Z,61.31
2022-09-15T17:58:07.008Z,61.00
2022-09-15T18:00:39.702Z,61.72
2022-09-15T18:03:28.922Z,61.42
2022-09-15T18:05:58.310Z,61.75
2022-09-15T18:08:25.844Z,61.31
2022-09-15T18:10:52.470Z,61.32
2022-09-15T18:13:23.569Z,62.03
2022-09-15T18:15:50.808Z,61.49
2022-09-15T18:18:23.940Z,61.59
2022-09-15T18:20:53.075Z,62.51
2022-09-15T18:23:25.294Z,62.06
2022-09-15T18:25:52.208Z,62.08
2022-09-15T18:28:19.616Z,61.75
2022-09-15T18:30:48.103Z,61.53
2022-09-15T18:33:20.859Z,62.77
2022-09-15T18:35:56.136Z,62.22
2022-09-15T18:38:23.381Z,62.45
2022-09-15T18:40:53.458Z,62.85
2022-09-15T18:43:21.228Z,63.28
2022-09-15T18:45:48.382Z,62.32
2022-09-15T18:48:18.435Z,62.82
2022-09-15T18:50:45.504Z,63.86
2022-09-15T18:53:12.527Z,63.01
2022-09-15T18:55:41.612Z,63.92
2022-09-15T18:58:08.538Z,63.07
2022-09-15T19:00:35.488Z,62.82
2022-09-15T19:03:05.239Z,62.50
2022-09-15T19:05:32.683Z,62.21
2022-09-15T19:07:59.389Z,62.48
2022-09-15T19:10:27.014Z,62.15
2022-09-15T19:12:54.053Z,62.39
2022-09-15T19:15:23.685Z,63.86
2022-09-15T19:17:50.699Z,62.91
2022-09-15T19:20:17.556Z,63.50
2022-09-15T19:22:44.178Z,63.71
2022-09-15T19:25:11.362Z,64.68
2022-09-15T19:27:38.817Z,65.59
2022-09-15T19:30:07.005Z,66.56
2022-09-15T19:32:33.984Z,67.43
2022-09-15T19:35:00.694Z,67.67
2022-09-15T19:37:27.563Z,67.25
2022-09-15T19:39:54.799Z,68.13
2022-09-15T19:42:21.600Z,67.20
2022-09-15T19:44:49.449Z,66.66
2022-09-15T19:47:16.256Z,67.30
2022-09-15T19:49:42.989Z,66.87
2022-09-15T19:52:09.623Z,65.93
2022-09-15T19:54:36.204Z,65.25
2022-09-15T19:57:03.370Z,65.94
2022-09-15T19:59:31.694Z,66.14
2022-09-15T20:01:59.367Z,65.36
2022-09-15T20:04:26.047Z,65.68
2022-09-15T20:06:52.716Z,65.80
2022-09-15T20:09:19.297Z,65.53
2022-09-15T20:11:46.194Z,64.89
2022-09-15T20:14:12.919Z,65.75
2022-09-15T20:16:39.842Z,65.55
2022-09-15T20:19:07.661Z,66.60
2022-09-15T20:21:52.746Z,65.95
2022-09-15T20:24:20.932Z,66.53
2022-09-15T20:26:48.164Z,65.73
2022-09-15T20:29:15.473Z,65.47
2022-09-15T20:31:42.649Z,65.60
2022-09-15T20:34:09.307Z,65.73
2022-09-15T20:36:38.442Z,65.58
2022-09-15T20:39:10.376Z,65.23
2022-09-15T20:41:37.521Z,65.58
2022-09-15T20:44:06.000Z,64.65
2022-09-15T20:46:33.585Z,64.75
2022-09-15T20:49:00.150Z,63.69
2022-09-15T20:51:30.537Z,64.54
2022-09-15T20:53:59.439Z,64.56
2022-09-15T20:56:28.069Z,64.69
2022-09-15T20:58:59.591Z,64.80
2022-09-15T21:01:34.173Z,64.71
2022-09-15T21:04:01.163Z,64.56
2022-09-15T21:06:28.374Z,64.18
2022-09-15T21:08:56.846Z,65.18
2022-09-15T21:11:25.366Z,64.66
2022-09-15T21:13:52.496Z,64.46
2022-09-15T21:16:21.933Z,64.74
2022-09-15T21:18:49.606Z,64.26
2022-09-15T21:21:20.538Z,63.36
2022-09-15T21:23:53.204Z,64.09
2022-09-15T21:26:25.309Z,64.57
2022-09-15T21:28:53.151Z,65.36
2022-09-15T21:31:28.152Z,65.09
2022-09-15T21:33:56.094Z,64.49
2022-09-15T21:36:29.579Z,65.73
2022-09-15T21:38:58.267Z,65.17
2022-09-15T21:41:28.133Z,65.12
2022-09-15T21:43:55.350Z,65.77
2022-09-15T21:46:24.198Z,65.46
2022-09-15T21:48:51.756Z,66.45
2022-09-15T21:51:23.523Z,65.61
2022-09-15T21:53:53.191Z,65.84
2022-09-15T21:56:20.340Z,66.22
2022-09-15T21:58:47.193Z,65.22
2022-09-15T22:01:15.129Z,65.95
2022-09-15T22:03:42.985Z,67.26
2022-09-15T22:06:11.558Z,66.81
2022-09-15T22:08:40.175Z,67.12
2022-09-15T22:11:08.185Z,66.51
2022-09-15T22:13:43.671Z,66.48
2022-09-15T22:16:16.608Z,66.14
2022-09-15T22:18:44.599Z,66.74
2022-09-15T22:21:12.771Z,66.14
2022-09-15T22:23:40.046Z,65.10
2022-09-15T22:26:15.246Z,65.54
2022-09-15T22:28:42.509Z,65.91
2022-09-15T22:31:11.595Z,65.09
2022-09-15T22:33:41.017Z,65.59
2022-09-15T22:36:17.020Z,65.07
2022-09-15T22:38:44.824Z,66.15
2022-09-15T22:41:14.112Z,66.04
2022-09-15T22:43:42.979Z,66.30
2022-09-15T22:46:10.548Z,65.68
2022-09-15T22:48:42.443Z,66.00
2022-09-15T22:51:10.382Z,65.08
2022-09-15T22:53:36.951Z,65.04
2022-09-15T22:56:10.491Z,65.02
2022-09-15T22:58:37.516Z,64.32
2022-09-15T23:01:09.820Z,66.30
2022-09-15T23:03:37.786Z,65.78
2022-09-15T23:06:05.639Z,65.57
2022-09-15T23:08:33.151Z,66.12
2022-09-15T23:11:14.051Z,65.68
2022-09-15T23:13:41.789Z,66.50
2022-09-15T23:16:08.929Z,65.10
2022-09-15T23:18:36.002Z,65.89
2022-09-15T23:21:07.894Z,66.12
2022-09-15T23:23:36.504Z,65.99
2022-09-15T23:26:04.695Z,67.66
2022-09-15T23:28:32.642Z,68.19
2022-09-15T23:30:59.804Z,66.63
2022-09-15T23:33:28.373Z,65.94
2022-09-15T23:35:55.421Z,66.75
2022-09-15T23:38:22.650Z,66.05
2022-09-15T23:40:50.537Z,65.33
2022-09-15T23:43:17.806Z,65.25
2022-09-15T23:45:45.697Z,64.28
2022-09-15T23:48:13.416Z,64.74
2022-09-15T23:50:40.994Z,64.82
2022-09-15T23:53:08.464Z,65.36
2022-09-15T23:55:35.901Z,65.83
2022-09-15T23:58:02.735Z,65.01
